createdAt,value
2019-03-17T00:01:56.740Z,99.00
2019-03-17T00:04:16.332Z,99.30
2019-03-17T00:06:46.015Z,99.50
2019-03-17T00:09:16.003Z,99.60
2019-03-17T00:11:45.801Z,99.70
2019-03-17T00:14:15.762Z,99.80
2019-03-17T00:16:45.769Z,99.70
2019-03-17T00:19:15.889Z,99.90
2019-03-17T00:21:46.140Z,99.90
2019-03-17T00:24:15.831Z,99.90
2019-03-17T00:26:46.257Z,99.90
2019-03-17T00:29:16.070Z,99.90
2019-03-17T00:31:46.179Z,99.90
2019-03-17T00:34:16.310Z,99.90
2019-03-17T00:36:46.226Z,99.90
2019-03-17T00:39:16.009Z,99.90
2019-03-17T00:41:45.528Z,99.90
2019-03-17T00:44:15.654Z,99.90
2019-03-17T00:46:45.377Z,99.90
2019-03-17T00:49:14.925Z,99.90
2019-03-17T00:51:44.353Z,99.90
2019-03-17T00:54:13.832Z,99.90
2019-03-17T00:56:44.322Z,99.90
2019-03-17T00:59:13.872Z,99.90
2019-03-17T01:01:43.773Z,99.90
2019-03-17T01:04:13.947Z,99.90
2019-03-17T01:06:43.960Z,99.90
2019-03-17T01:09:14.020Z,99.90
2019-03-17T01:11:43.826Z,99.90
2019-03-17T01:14:13.842Z,99.90
2019-03-17T01:16:44.365Z,99.90
2019-03-17T01:19:14.078Z,99.90
2019-03-17T01:21:44.096Z,99.90
2019-03-17T01:24:13.919Z,99.90
2019-03-17T01:26:43.587Z,99.90
2019-03-17T01:29:13.503Z,99.90
2019-03-17T01:31:43.558Z,99.90
2019-03-17T01:34:14.047Z,99.90
2019-03-17T01:36:44.647Z,99.90
2019-03-17T01:39:14.340Z,99.90
2019-03-17T01:41:44.149Z,99.90
2019-03-17T01:44:13.894Z,99.90
2019-03-17T01:46:43.653Z,99.90
2019-03-17T01:49:13.973Z,99.90
2019-03-17T01:51:43.390Z,99.90
2019-03-17T01:54:12.776Z,99.90
2019-03-17T01:56:42.596Z,99.90
2019-03-17T01:59:12.466Z,99.90
2019-03-17T02:01:42.634Z,99.90
2019-03-17T02:04:12.348Z,99.90
2019-03-17T02:06:42.219Z,99.90
2019-03-17T02:09:12.489Z,99.90
2019-03-17T02:11:42.614Z,99.90
2019-03-17T02:14:12.836Z,99.90
2019-03-17T02:16:42.559Z,99.90
2019-03-17T02:19:11.939Z,99.90
2019-03-17T02:21:41.766Z,99.90
2019-03-17T02:24:11.483Z,99.90
2019-03-17T02:26:41.251Z,99.90
2019-03-17T02:29:11.312Z,99.90
2019-03-17T02:31:41.472Z,99.90
2019-03-17T02:34:12.090Z,99.90
2019-03-17T02:36:42.596Z,99.90
2019-03-17T02:39:13.115Z,99.90
2019-03-17T02:41:43.498Z,99.90
2019-03-17T02:44:13.293Z,99.90
2019-03-17T02:46:43.161Z,99.90
2019-03-17T02:49:12.753Z,99.90
2019-03-17T02:51:43.242Z,99.90
2019-03-17T02:54:13.564Z,99.90
2019-03-17T02:56:43.451Z,99.90
2019-03-17T02:59:13.265Z,99.90
2019-03-17T03:01:43.415Z,99.90
2019-03-17T03:04:13.192Z,99.90
2019-03-17T03:06:42.620Z,99.90
2019-03-17T03:09:13.053Z,99.90
2019-03-17T03:11:42.839Z,99.90
2019-03-17T03:14:12.887Z,99.90
2019-03-17T03:16:42.376Z,99.90
2019-03-17T03:19:12.482Z,99.90
2019-03-17T03:21:42.320Z,99.90
2019-03-17T03:24:12.043Z,99.90
2019-03-17T03:26:42.153Z,99.90
2019-03-17T03:29:11.990Z,99.90
2019-03-17T03:31:42.394Z,99.90
2019-03-17T03:34:12.627Z,99.90
2019-03-17T03:36:42.141Z,99.90
2019-03-17T03:39:12.547Z,99.90
2019-03-17T03:41:42.449Z,99.90
2019-03-17T03:44:12.350Z,99.90
2019-03-17T03:46:42.732Z,99.90
2019-03-17T03:49:12.559Z,99.90
2019-03-17T03:51:42.244Z,99.90
2019-03-17T03:54:12.044Z,99.90
2019-03-17T03:56:41.492Z,99.90
2019-03-17T03:59:11.368Z,99.90
2019-03-17T04:01:41.084Z,99.90
2019-03-17T04:04:10.767Z,99.90
2019-03-17T04:06:40.560Z,99.90
2019-03-17T04:09:10.393Z,99.90
2019-03-17T04:11:40.308Z,99.90
2019-03-17T04:14:10.042Z,99.90
2019-03-17T04:16:39.856Z,99.90
2019-03-17T04:19:09.981Z,99.90
2019-03-17T04:21:39.902Z,99.90
2019-03-17T04:24:09.346Z,99.90
2019-03-17T04:26:39.097Z,99.90
2019-03-17T04:29:08.504Z,99.90
2019-03-17T04:31:38.637Z,99.90
2019-03-17T04:34:08.380Z,99.90
2019-03-17T04:36:40.447Z,99.90
2019-03-17T04:39:10.247Z,99.90
2019-03-17T04:41:40.043Z,99.90
2019-03-17T04:44:20.235Z,99.90
2019-03-17T04:46:41.190Z,99.90
2019-03-17T04:49:11.162Z,99.90
2019-03-17T04:51:41.248Z,99.90
2019-03-17T04:54:12.017Z,99.90
2019-03-17T04:56:41.878Z,99.90
2019-03-17T04:59:11.877Z,99.90
2019-03-17T05:01:41.722Z,99.90
2019-03-17T05:04:11.532Z,99.90
2019-03-17T05:06:52.064Z,99.90
2019-03-17T05:09:13.419Z,99.90
2019-03-17T05:11:43.120Z,99.90
2019-03-17T05:14:12.467Z,99.90
2019-03-17T05:16:42.202Z,99.90
2019-03-17T05:19:12.029Z,99.90
2019-03-17T05:21:41.877Z,99.90
2019-03-17T05:24:11.479Z,99.90
2019-03-17T05:26:41.242Z,99.90
2019-03-17T05:29:11.351Z,99.90
2019-03-17T05:31:40.806Z,99.90
2019-03-17T05:34:10.805Z,99.90
2019-03-17T05:36:40.602Z,99.90
2019-03-17T05:39:10.439Z,99.90
2019-03-17T05:41:40.366Z,99.90
2019-03-17T05:44:10.620Z,99.90
2019-03-17T05:46:40.521Z,99.90
2019-03-17T05:49:10.470Z,99.90
2019-03-17T05:51:40.287Z,99.90
2019-03-17T05:54:10.493Z,99.90
2019-03-17T05:56:40.760Z,99.90
2019-03-17T05:59:10.568Z,99.90
2019-03-17T06:01:40.805Z,99.90
2019-03-17T06:04:10.696Z,99.90
2019-03-17T06:06:40.867Z,99.90
2019-03-17T06:09:10.354Z,99.90
2019-03-17T06:11:40.494Z,99.90
2019-03-17T06:14:10.281Z,99.90
2019-03-17T06:16:40.445Z,99.90
2019-03-17T06:19:11.274Z,99.90
2019-03-17T06:21:41.691Z,99.90
2019-03-17T06:24:11.495Z,99.90
2019-03-17T06:26:41.332Z,99.90
2019-03-17T06:29:11.128Z,99.90
2019-03-17T06:31:40.899Z,99.90
2019-03-17T06:34:11.110Z,99.90
2019-03-17T06:36:41.565Z,99.90
2019-03-17T06:39:12.226Z,99.90
2019-03-17T06:41:42.234Z,99.90
2019-03-17T06:44:12.292Z,99.90
2019-03-17T06:46:42.451Z,99.90
2019-03-17T06:49:11.918Z,99.90
2019-03-17T06:51:41.741Z,99.90
2019-03-17T06:54:11.574Z,99.90
2019-03-17T06:56:41.900Z,99.90
2019-03-17T06:59:12.210Z,99.90
2019-03-17T07:01:42.307Z,99.90
2019-03-17T07:04:12.443Z,99.90
2019-03-17T07:06:42.617Z,99.90
2019-03-17T07:09:12.069Z,99.90
2019-03-17T07:11:41.830Z,99.90
2019-03-17T07:14:12.226Z,99.90
2019-03-17T07:16:42.976Z,99.90
2019-03-17T07:19:13.477Z,99.90
2019-03-17T07:21:43.362Z,99.90
2019-03-17T07:24:13.186Z,99.90
2019-03-17T07:26:42.658Z,99.90
2019-03-17T07:29:12.059Z,99.90
2019-03-17T07:31:41.934Z,99.90
2019-03-17T07:34:11.426Z,99.90
2019-03-17T07:36:41.565Z,99.90
2019-03-17T07:39:12.536Z,99.90
2019-03-17T07:41:42.831Z,99.90
2019-03-17T07:44:12.908Z,99.90
2019-03-17T07:46:42.375Z,99.90
2019-03-17T07:49:12.569Z,99.90
2019-03-17T07:51:42.472Z,99.90
2019-03-17T07:54:12.632Z,99.90
2019-03-17T07:56:42.068Z,99.90
2019-03-17T07:59:12.944Z,99.90
2019-03-17T08:01:43.069Z,99.90
2019-03-17T08:04:12.851Z,99.90
2019-03-17T08:06:42.932Z,99.90
2019-03-17T08:09:13.123Z,99.90
2019-03-17T08:11:43.223Z,99.90
2019-03-17T08:14:12.907Z,99.90
2019-03-17T08:16:42.311Z,99.90
2019-03-17T08:19:11.783Z,99.90
2019-03-17T08:21:43.363Z,99.90
2019-03-17T08:24:13.210Z,99.90
2019-03-17T08:26:43.045Z,99.90
2019-03-17T08:29:13.570Z,99.90
2019-03-17T08:31:43.284Z,99.90
2019-03-17T08:34:12.967Z,99.90
2019-03-17T08:36:43.006Z,99.90
2019-03-17T08:39:13.477Z,99.90
2019-03-17T08:41:42.874Z,99.90
2019-03-17T08:44:12.853Z,99.90
2019-03-17T08:46:43.289Z,99.90
2019-03-17T08:49:14.096Z,99.90
2019-03-17T08:51:44.172Z,99.90
2019-03-17T08:54:13.924Z,99.90
2019-03-17T08:56:43.671Z,99.70
2019-03-17T08:59:13.702Z,99.90
2019-03-17T09:01:43.647Z,99.90
2019-03-17T09:04:13.471Z,99.90
2019-03-17T09:06:43.219Z,99.90
2019-03-17T09:09:13.131Z,99.90
2019-03-17T09:11:42.947Z,99.40
2019-03-17T09:14:13.101Z,99.40
2019-03-17T09:16:43.782Z,98.90
2019-03-17T09:19:14.593Z,98.90
2019-03-17T09:21:46.439Z,98.90
2019-03-17T09:24:17.624Z,98.50
2019-03-17T09:27:06.504Z,98.10
2019-03-17T09:29:36.643Z,97.30
2019-03-17T09:32:06.369Z,97.50
2019-03-17T09:34:35.846Z,96.80
2019-03-17T09:37:05.655Z,96.60
2019-03-17T09:39:35.362Z,96.20
2019-03-17T09:42:05.211Z,95.90
2019-03-17T09:44:34.969Z,95.40
2019-03-17T09:47:05.039Z,95.30
2019-03-17T09:49:35.057Z,94.90
2019-03-17T09:52:05.484Z,94.10
2019-03-17T09:54:35.578Z,94.00
2019-03-17T09:57:05.061Z,94.40
2019-03-17T09:59:34.795Z,93.90
2019-03-17T10:02:05.224Z,93.30
2019-03-17T10:04:35.261Z,92.50
2019-03-17T10:07:05.301Z,92.00
2019-03-17T10:09:36.068Z,92.40
2019-03-17T10:12:05.506Z,93.00
2019-03-17T10:14:35.567Z,92.90
2019-03-17T10:17:05.434Z,93.20
2019-03-17T10:19:35.123Z,93.30
2019-03-17T10:22:05.598Z,93.00
2019-03-17T10:24:35.475Z,93.00
2019-03-17T10:27:06.192Z,92.90
2019-03-17T10:29:36.510Z,92.60
2019-03-17T10:32:06.606Z,92.00
2019-03-17T10:34:36.755Z,91.90
2019-03-17T10:37:07.200Z,92.10
2019-03-17T10:39:37.382Z,91.70
2019-03-17T10:42:07.752Z,91.70
2019-03-17T10:44:37.550Z,91.50
2019-03-17T10:47:07.349Z,90.70
2019-03-17T10:49:37.035Z,90.00
2019-03-17T10:52:07.059Z,89.20
2019-03-17T10:54:37.177Z,89.10
2019-03-17T10:57:07.111Z,88.90
2019-03-17T10:59:36.491Z,89.90
2019-03-17T11:02:06.254Z,90.00
2019-03-17T11:04:35.863Z,89.90
2019-03-17T11:07:06.428Z,90.20
2019-03-17T11:09:36.216Z,89.30
2019-03-17T11:12:05.590Z,88.10
2019-03-17T11:14:35.367Z,88.10
2019-03-17T11:17:05.135Z,86.50
2019-03-17T11:19:35.539Z,85.40
2019-03-17T11:22:05.736Z,85.60
2019-03-17T11:24:35.884Z,86.20
2019-03-17T11:27:06.088Z,85.60
2019-03-17T11:29:35.874Z,85.90
2019-03-17T11:32:06.677Z,85.60
2019-03-17T11:34:36.655Z,84.80
2019-03-17T11:37:06.391Z,84.80
2019-03-17T11:39:38.116Z,83.40
2019-03-17T11:42:08.869Z,82.90
2019-03-17T11:44:39.055Z,82.80
2019-03-17T11:47:08.854Z,83.70
2019-03-17T11:49:38.939Z,82.00
2019-03-17T11:52:08.322Z,81.80
2019-03-17T11:54:37.798Z,81.50
2019-03-17T11:57:07.492Z,81.10
2019-03-17T11:59:36.941Z,80.90
2019-03-17T12:02:06.419Z,80.30
2019-03-17T12:04:36.544Z,79.60
2019-03-17T12:07:06.293Z,79.80
2019-03-17T12:09:36.165Z,79.00
2019-03-17T12:12:05.961Z,79.20
2019-03-17T12:14:36.039Z,78.70
2019-03-17T12:17:05.899Z,78.30
2019-03-17T12:19:35.671Z,76.40
2019-03-17T12:22:09.325Z,76.60
2019-03-17T12:24:37.237Z,74.30
2019-03-17T12:27:07.158Z,73.40
2019-03-17T12:29:36.946Z,73.60
2019-03-17T12:32:06.787Z,72.30
2019-03-17T12:34:36.519Z,71.80
2019-03-17T12:37:05.970Z,71.30
2019-03-17T12:39:36.113Z,70.70
2019-03-17T12:42:06.328Z,69.10
2019-03-17T12:44:38.790Z,70.10
2019-03-17T12:47:08.920Z,67.80
2019-03-17T12:49:38.715Z,68.30
2019-03-17T12:52:08.201Z,67.90
2019-03-17T12:54:37.660Z,67.70
2019-03-17T12:57:08.392Z,67.80
2019-03-17T12:59:38.640Z,67.80
2019-03-17T13:02:08.088Z,67.00
2019-03-17T13:04:37.895Z,65.60
2019-03-17T13:07:08.154Z,66.50
2019-03-17T13:09:37.975Z,65.10
2019-03-17T13:12:08.231Z,65.70
2019-03-17T13:14:37.735Z,66.50
2019-03-17T13:17:08.048Z,66.50
2019-03-17T13:19:38.577Z,67.60
2019-03-17T13:22:08.855Z,65.80
2019-03-17T13:24:38.282Z,63.70
2019-03-17T13:27:08.195Z,61.50
2019-03-17T13:29:38.000Z,61.40
2019-03-17T13:32:08.372Z,61.40
2019-03-17T13:34:38.595Z,62.90
2019-03-17T13:37:08.029Z,63.40
2019-03-17T13:39:38.148Z,63.80
2019-03-17T13:42:08.003Z,63.60
2019-03-17T13:44:38.155Z,63.60
2019-03-17T13:47:07.949Z,64.20
2019-03-17T13:49:37.791Z,62.50
2019-03-17T13:52:08.000Z,62.60
2019-03-17T13:54:37.809Z,63.10
2019-03-17T13:57:08.020Z,63.00
2019-03-17T13:59:38.242Z,63.40
2019-03-17T14:02:08.124Z,63.50
2019-03-17T14:04:38.058Z,63.20
2019-03-17T14:07:08.221Z,63.60
2019-03-17T14:09:38.313Z,63.40
2019-03-17T14:12:08.802Z,63.60
2019-03-17T14:14:39.395Z,62.90
2019-03-17T14:17:09.557Z,62.00
2019-03-17T14:19:39.939Z,60.90
2019-03-17T14:22:10.048Z,60.60
2019-03-17T14:24:39.837Z,60.40
2019-03-17T14:27:09.304Z,60.70
2019-03-17T14:29:38.707Z,60.90
2019-03-17T14:32:08.879Z,60.60
2019-03-17T14:34:38.679Z,60.40
2019-03-17T14:37:08.968Z,59.40
2019-03-17T14:39:39.485Z,59.20
2019-03-17T14:42:08.937Z,58.70
2019-03-17T14:44:39.087Z,59.20
2019-03-17T14:47:09.206Z,58.70
2019-03-17T14:49:39.399Z,57.80
2019-03-17T14:52:09.655Z,57.10
2019-03-17T14:54:39.567Z,55.50
2019-03-17T14:57:09.690Z,55.40
2019-03-17T14:59:39.810Z,56.30
2019-03-17T15:02:09.628Z,54.60
2019-03-17T15:04:41.118Z,54.70
2019-03-17T15:07:11.430Z,55.10
2019-03-17T15:09:41.971Z,54.10
2019-03-17T15:12:11.848Z,53.90
2019-03-17T15:14:41.668Z,53.60
2019-03-17T15:17:11.551Z,52.30
2019-03-17T15:19:42.211Z,51.80
2019-03-17T15:22:12.030Z,52.00
2019-03-17T15:24:42.560Z,51.80
2019-03-17T15:27:12.525Z,51.60
2019-03-17T15:29:42.992Z,52.10
2019-03-17T15:32:13.226Z,51.90
2019-03-17T15:34:44.004Z,52.20
2019-03-17T15:37:13.891Z,52.70
2019-03-17T15:39:44.133Z,51.70
2019-03-17T15:42:14.438Z,52.60
2019-03-17T15:44:44.017Z,52.80
2019-03-17T15:47:14.217Z,52.80
2019-03-17T15:49:44.723Z,53.10
2019-03-17T15:52:14.563Z,53.00
2019-03-17T15:54:44.786Z,53.20
2019-03-17T15:57:15.287Z,53.30
2019-03-17T15:59:48.543Z,53.70
2019-03-17T16:02:17.284Z,54.20
2019-03-17T16:04:48.242Z,54.70
2019-03-17T16:07:18.110Z,55.40
2019-03-17T16:09:48.333Z,55.60
2019-03-17T16:12:18.183Z,55.90
2019-03-17T16:14:48.508Z,56.80
2019-03-17T16:17:18.376Z,56.80
2019-03-17T16:19:48.694Z,56.80
2019-03-17T16:22:19.082Z,57.80
2019-03-17T16:24:48.808Z,58.90
2019-03-17T16:27:18.312Z,58.90
2019-03-17T16:29:48.450Z,58.80
2019-03-17T16:32:18.876Z,58.80
2019-03-17T16:34:48.775Z,59.30
2019-03-17T16:37:20.033Z,60.30
2019-03-17T16:39:50.854Z,60.50
2019-03-17T16:42:20.834Z,60.10
2019-03-17T16:44:50.603Z,60.10
2019-03-17T16:47:20.633Z,61.20
2019-03-17T16:49:50.919Z,61.20
2019-03-17T16:52:20.999Z,61.00
2019-03-17T16:54:50.478Z,62.10
2019-03-17T16:57:20.463Z,61.90
2019-03-17T16:59:52.436Z,62.90
2019-03-17T17:02:22.425Z,62.80
2019-03-17T17:04:52.208Z,62.80
2019-03-17T17:07:22.951Z,62.50
2019-03-17T17:09:52.738Z,62.60
2019-03-17T17:12:25.491Z,62.90
2019-03-17T17:14:55.963Z,62.70
2019-03-17T17:17:25.761Z,63.50
2019-03-17T17:19:55.247Z,64.50
2019-03-17T17:22:25.859Z,65.00
2019-03-17T17:24:56.298Z,65.70
2019-03-17T17:27:25.981Z,65.20
2019-03-17T17:29:57.181Z,64.80
2019-03-17T17:32:27.379Z,66.40
2019-03-17T17:34:58.408Z,67.40
2019-03-17T17:37:29.105Z,66.40
2019-03-17T17:39:58.941Z,66.80
2019-03-17T17:42:29.263Z,67.50
2019-03-17T17:44:59.020Z,67.00
2019-03-17T17:47:29.108Z,67.50
2019-03-17T17:49:59.191Z,67.20
2019-03-17T17:52:29.415Z,66.40
2019-03-17T17:54:59.631Z,67.40
2019-03-17T17:57:29.783Z,68.10
2019-03-17T17:59:59.975Z,68.70
2019-03-17T18:02:29.480Z,67.70
2019-03-17T18:04:59.345Z,67.20
2019-03-17T18:07:29.536Z,66.50
2019-03-17T18:09:59.519Z,65.60
2019-03-17T18:12:29.348Z,65.40
2019-03-17T18:14:59.149Z,66.80
2019-03-17T18:17:28.999Z,67.00
2019-03-17T18:19:59.231Z,66.00
2019-03-17T18:22:29.854Z,65.60
2019-03-17T18:24:59.799Z,65.50
2019-03-17T18:27:30.422Z,65.80
2019-03-17T18:30:01.034Z,66.00
2019-03-17T18:32:30.841Z,66.20
2019-03-17T18:35:01.448Z,67.10
2019-03-17T18:37:30.994Z,68.20
2019-03-17T18:40:00.459Z,68.20
2019-03-17T18:42:33.309Z,68.40
2019-03-17T18:45:02.985Z,68.70
2019-03-17T18:47:35.210Z,68.70
2019-03-17T18:50:05.837Z,68.00
2019-03-17T18:52:36.318Z,68.90
2019-03-17T18:55:06.331Z,68.50
2019-03-17T18:57:38.982Z,68.10
2019-03-17T19:00:12.127Z,68.00
2019-03-17T19:02:42.441Z,68.10
2019-03-17T19:05:12.878Z,67.20
2019-03-17T19:07:42.873Z,68.10
2019-03-17T19:10:12.393Z,68.80
2019-03-17T19:12:45.864Z,69.20
2019-03-17T19:15:14.359Z,68.70
2019-03-17T19:17:44.673Z,68.70
2019-03-17T19:20:15.425Z,69.20
2019-03-17T19:22:45.615Z,68.90
2019-03-17T19:25:34.168Z,69.40
2019-03-17T19:28:04.338Z,68.90
2019-03-17T19:30:34.647Z,68.80
2019-03-17T19:33:04.109Z,68.30
2019-03-17T19:35:34.062Z,68.90
2019-03-17T19:38:04.187Z,69.50
2019-03-17T19:40:34.371Z,69.60
2019-03-17T19:43:04.527Z,70.50
2019-03-17T19:45:34.067Z,70.30
2019-03-17T19:48:03.858Z,69.80
2019-03-17T19:50:35.806Z,70.20
2019-03-17T19:53:05.949Z,68.70
2019-03-17T19:55:36.614Z,69.20
2019-03-17T19:58:06.802Z,69.00
2019-03-17T20:00:36.842Z,68.90
2019-03-17T20:03:07.036Z,70.10
2019-03-17T20:05:37.269Z,71.00
2019-03-17T20:08:07.396Z,69.50
2019-03-17T20:10:37.184Z,69.50
2019-03-17T20:13:11.996Z,70.10
2019-03-17T20:15:38.817Z,70.90
2019-03-17T20:18:09.506Z,69.20
2019-03-17T20:20:39.634Z,69.00
2019-03-17T20:23:10.492Z,70.10
2019-03-17T20:25:41.006Z,70.70
2019-03-17T20:28:10.850Z,72.00
2019-03-17T20:30:41.292Z,73.00
2019-03-17T20:33:12.239Z,73.50
2019-03-17T20:35:42.405Z,74.20
2019-03-17T20:38:13.052Z,74.10
2019-03-17T20:40:42.947Z,75.10
2019-03-17T20:43:24.026Z,76.00
2019-03-17T20:45:44.745Z,76.00
2019-03-17T20:48:14.764Z,75.70
2019-03-17T20:50:44.721Z,74.90
2019-03-17T20:53:14.245Z,74.20
2019-03-17T20:55:44.109Z,74.30
2019-03-17T20:58:14.328Z,76.20
2019-03-17T21:00:44.357Z,75.60
2019-03-17T21:03:14.149Z,74.60
2019-03-17T21:05:43.720Z,74.50
2019-03-17T21:08:13.887Z,74.70
2019-03-17T21:10:43.993Z,74.70
2019-03-17T21:13:14.203Z,74.50
2019-03-17T21:15:44.360Z,73.60
2019-03-17T21:18:14.714Z,72.80
2019-03-17T21:20:45.299Z,72.80
2019-03-17T21:23:15.211Z,73.40
2019-03-17T21:25:45.465Z,73.20
2019-03-17T21:28:15.271Z,72.90
2019-03-17T21:30:44.753Z,71.30
2019-03-17T21:33:14.583Z,71.70
2019-03-17T21:35:44.660Z,71.50
2019-03-17T21:38:14.826Z,70.80
2019-03-17T21:41:01.677Z,70.30
2019-03-17T21:43:17.191Z,70.30
2019-03-17T21:45:46.911Z,69.80
2019-03-17T21:48:17.978Z,70.60
2019-03-17T21:50:48.926Z,71.40
2019-03-17T21:53:18.733Z,70.70
2019-03-17T21:55:48.824Z,69.90
2019-03-17T21:58:19.180Z,69.30
2019-03-17T22:00:48.712Z,69.30
2019-03-17T22:03:22.666Z,69.00
2019-03-17T22:05:53.235Z,69.50
2019-03-17T22:08:22.703Z,69.20
2019-03-17T22:10:52.968Z,68.50
2019-03-17T22:13:23.583Z,68.40
2019-03-17T22:15:53.915Z,68.00
2019-03-17T22:18:23.404Z,67.10
2019-03-17T22:20:53.434Z,67.70
2019-03-17T22:23:23.198Z,68.80
2019-03-17T22:25:52.962Z,71.40
2019-03-17T22:28:23.361Z,75.90
2019-03-17T22:30:53.381Z,79.30
2019-03-17T22:33:23.174Z,83.00
2019-03-17T22:35:53.300Z,86.40
2019-03-17T22:38:23.361Z,89.30
2019-03-17T22:40:52.771Z,91.40
2019-03-17T22:43:22.787Z,92.20
2019-03-17T22:45:53.066Z,92.70
2019-03-17T22:48:23.213Z,93.40
2019-03-17T22:50:53.334Z,93.80
2019-03-17T22:53:23.218Z,94.50
2019-03-17T22:55:53.060Z,95.20
2019-03-17T22:58:22.981Z,95.70
2019-03-17T23:00:53.150Z,96.00
2019-03-17T23:03:23.649Z,96.10
2019-03-17T23:05:53.771Z,96.40
2019-03-17T23:08:23.723Z,96.60
2019-03-17T23:10:53.638Z,96.70
2019-03-17T23:13:23.869Z,96.70
2019-03-17T23:15:53.662Z,96.80
2019-03-17T23:18:23.366Z,96.80
2019-03-17T23:20:53.763Z,96.40
2019-03-17T23:23:23.474Z,96.10
2019-03-17T23:25:53.700Z,95.80
2019-03-17T23:28:23.446Z,95.80
2019-03-17T23:30:53.997Z,95.70
2019-03-17T23:33:23.448Z,95.70
2019-03-17T23:35:53.133Z,95.70
2019-03-17T23:38:22.558Z,95.70
2019-03-17T23:40:52.256Z,95.80
2019-03-17T23:43:22.081Z,95.90
2019-03-17T23:45:52.060Z,95.80
2019-03-17T23:48:22.424Z,95.80
2019-03-17T23:50:52.156Z,95.80
2019-03-17T23:53:22.379Z,95.50
2019-03-17T23:55:52.473Z,95.40
2019-03-17T23:58:22.913Z,95.40
